Latest Weather Observations for Ernabella/Pukatja

IDD60801

Issued at 6:01 pm CST Thursday 29 June 2017 (issued every 30 minutes, with the page automatically refreshed every 10 minutes)

About weather observations | Map of weather stations | Latest weather observations for NT | Other Formats
Station Details ID: 016097 Name: PUKATJA Lat: -26.26 Lon: 132.18 Height: 703.2 m
Data from the previous 72 hours. | See also: Recent months at Ernabella/Pukatja
Date/Time
CST
Temp
°C
App
Temp
°C
Dew
Point
°C
Rel
Hum
%
Delta-T
°C
Wind Press
QNH
hPa
Press
MSL
hPa
Rain since
9am
mm
Dir  Spd
km/h
Gust
km/h
Spd
kts
Gust
kts
29/06:00pm 9.7 4.8 2.1 59 3.3 ESE 17 24 9 13 1030.3 1030.0 0.0
29/05:30pm 10.6 5.3 1.9 55 3.8 SE 19 24 10 13 1030.3 1030.0 0.0
29/05:00pm 11.4 6.0 2.2 53 4.1 ESE 20 30 11 16 1030.0 1029.7 0.0
29/04:30pm 11.6 5.7 1.5 50 4.4 SE 22 33 12 18 1029.6 1029.3 0.0
29/04:00pm 12.2 6.3 1.8 49 4.6 SE 22 35 12 19 1029.6 1029.3 0.0
29/03:30pm 11.8 5.8 1.2 48 4.6 SE 22 33 12 18 1029.3 1029.0 0.0
29/03:00pm 11.8 5.9 1.7 50 4.4 ESE 22 33 12 18 1029.2 1028.8 0.0
29/02:30pm 11.8 5.0 0.9 47 4.7 ESE 26 37 14 20 1029.6 1029.3 0.0
29/02:00pm 11.7 5.3 0.8 47 4.7 SE 24 33 13 18 1029.6 1029.3 0.0
29/01:30pm 11.3 5.7 1.3 50 4.3 SE 20 30 11 16 1030.1 1029.8 0.0
29/01:00pm 11.1 5.4 2.7 56 3.8 ESE 22 35 12 19 1030.5 1030.3 0.0
29/12:30pm 10.5 4.5 3.3 61 3.2 SE 24 33 13 18 1030.8 1030.5 0.0
29/12:00pm 10.1 4.0 2.7 60 3.3 SSE 24 35 13 19 1031.4 1031.1 0.0
29/11:30am 9.5 3.3 2.4 61 3.1 SE 24 35 13 19 1031.9 1031.7 0.0
29/11:00am 9.0 2.5 2.6 64 2.8 SE 26 39 14 21 1032.4 1032.1 0.0
29/10:30am 8.8 3.6 3.8 71 2.2 SE 20 32 11 17 1032.4 1032.1 0.0
29/10:00am 7.7 1.7 3.4 74 1.9 SE 24 33 13 18 1032.4 1032.1 0.0
29/09:30am 7.2 1.2 3.6 78 1.6 ESE 24 33 13 18 1032.3 1032.0 0.0
29/09:00am 6.3 1.2 4.0 85 1.0 SE 20 30 11 16 1032.0 1031.8 1.2
29/08:30am 6.3 0.9 4.3 87 0.9 SSE 22 32 12 17 1031.7 1031.5 1.2
29/08:00am 6.4 1.6 4.7 89 0.8 SE 19 26 10 14 1031.2 1030.9 1.2
29/07:30am 6.7 1.8 5.3 91 0.6 SE 20 30 11 16 1030.8 1030.5 1.2
29/07:00am 6.8 3.1 6.1 95 0.3 SE 15 20 8 11 1030.5 1030.3 1.2
29/06:30am 6.7 1.3 6.3 97 0.2 SE 24 33 13 18 1030.3 1030.0 1.2
29/06:00am 6.8 1.8 6.5 98 0.1 SE 22 32 12 17 1030.1 1029.8 1.2
29/05:30am 7.0 2.0 6.6 97 0.2 SE 22 33 12 18 1029.7 1029.4 1.2
29/05:00am 7.4 2.9 7.1 98 0.1 SSE 20 30 11 16 1029.5 1029.2 1.2
29/04:30am 7.3 3.0 7.0 98 0.1 SSE 19 30 10 16 1029.4 1029.1 1.2
29/04:00am 7.5 3.5 6.8 95 0.3 SSE 17 26 9 14 1029.4 1029.1 1.2
29/03:30am 7.8 3.4 6.6 92 0.6 SSE 19 26 10 14 1029.4 1029.1 1.2
29/03:00am 7.9 3.4 6.2 89 0.8 SSE 19 26 10 14 1029.5 1029.2 1.2
29/02:30am 8.2 1.9 5.7 84 1.2 S 28 39 15 21 1029.5 1029.2 1.2
29/02:00am 8.5 3.1 6.5 87 1.0 S 24 33 13 18 1029.4 1029.1 1.2
29/01:30am 8.4 3.0 6.2 86 1.0 S 24 32 13 17 1029.4 1029.1 1.2
29/01:00am 8.5 3.0 6.1 85 1.1 S 24 37 13 20 1029.4 1029.1 1.2
29/12:30am 8.5 4.1 6.5 87 1.0 S 19 26 10 14 1029.4 1029.1 1.2
29/12:00am 8.6 3.9 6.1 84 1.2 SSW 20 30 11 16 1029.5 1029.2 1.2
 
Date/Time
CST
Temp
°C
App
Temp
°C
Dew
Point
°C
Rel
Hum
%
Delta-T
°C
Wind Press
QNH
hPa
Press
MSL
hPa
Rain since
9am
mm
Dir  Spd
km/h
Gust
km/h
Spd
kts
Gust
kts
28/11:30pm 8.9 4.8 6.3 84 1.2 S 17 22 9 12 1029.5 1029.2 1.2
28/11:00pm 8.8 5.1 6.1 83 1.3 S 15 20 8 11 1029.4 1029.1 1.2
28/10:30pm 9.2 5.7 5.6 78 1.7 S 13 20 7 11 1029.3 1029.0 1.2
28/10:00pm 9.3 5.3 5.1 75 2.0 SSE 15 24 8 13 1029.1 1028.7 1.2
28/09:30pm 9.5 4.5 4.5 71 2.3 SSE 20 28 11 15 1028.8 1028.5 1.2
28/09:00pm 8.9 4.1 4.7 75 1.9 S 19 30 10 16 1028.7 1028.4 1.2
28/08:30pm 8.9 4.5 4.9 76 1.8 S 17 24 9 13 1028.5 1028.2 1.2
28/08:00pm 9.2 3.9 4.8 74 2.0 S 22 28 12 15 1028.2 1027.9 1.2
28/07:30pm 9.2 4.4 5.6 78 1.7 S 20 28 11 15 1028.0 1027.7 1.2
28/07:00pm 8.9 3.8 6.0 82 1.4 S 22 30 12 16 1027.7 1027.3 1.2
28/06:30pm 9.4 5.0 7.2 86 1.1 S 20 32 11 17 1027.3 1027.0 1.2
28/06:00pm 9.4 4.2 7.2 86 1.1 S 24 35 13 19 1026.9 1026.6 1.2
28/05:30pm 9.8 3.2 7.6 86 1.1 S 32 41 17 22 1026.5 1026.1 1.2
28/05:00pm 10.3 5.8 8.6 89 0.9 S 22 33 12 18 1026.2 1025.8 1.2
28/04:30pm 12.0 8.1 7.3 73 2.3 S 17 20 9 11 1025.6 1025.3 1.0
28/04:00pm 12.0 7.5 6.3 68 2.8 SSE 19 26 10 14 1025.4 1025.0 1.0
28/03:30pm 11.8 7.3 6.3 69 2.7 S 19 26 10 14 1025.4 1025.0 1.0
28/03:00pm 11.6 6.6 6.5 71 2.5 SSW 22 32 12 17 1025.3 1024.9 1.0
28/02:30pm 11.8 7.4 6.5 70 2.6 S 19 26 10 14 1025.3 1024.9 1.0
28/02:00pm 11.5 6.4 7.6 77 2.0 SSW 24 33 13 18 1025.4 1025.0 1.0
28/01:30pm 10.9 6.0 7.0 77 1.9 S 22 32 12 17 1025.4 1025.0 1.0
28/01:00pm 11.3 7.6 8.0 80 1.7 SSE 17 22 9 12 1025.6 1025.3 1.0
28/12:30pm 10.8 6.8 8.2 84 1.3 S 19 28 10 15 1025.9 1025.6 1.0
28/12:00pm 10.5 6.9 8.3 86 1.1 SSE 17 24 9 13 1026.2 1025.8 1.0
28/11:30am 10.2 5.9 9.3 94 0.5 S 22 30 12 16 1026.4 1026.0 1.0
28/11:00am 9.9 6.0 9.4 97 0.3 SSE 20 26 11 14 1026.5 1026.1 1.0
28/10:30am 9.5 6.9 9.2 98 0.2 SSE 13 19 7 10 1026.3 1025.9 0.6
28/10:00am 9.4 5.4 9.1 98 0.2 SSE 20 28 11 15 1026.2 1025.8 0.4
28/09:30am 9.1 5.0 8.8 98 0.2 SSE 20 26 11 14 1025.8 1025.5 0.2
28/09:00am 9.4 7.1 9.1 98 0.2 SSE 11 15 6 8 1025.5 1025.2 6.0
28/08:30am 9.3 7.0 9.0 98 0.2 SSE 11 17 6 9 1025.1 1024.7 5.4
28/08:00am 9.4 7.1 8.9 97 0.3 SSE 11 15 6 8 1024.7 1024.3 5.2
28/07:30am 9.3 6.5 8.7 96 0.3 SSE 13 17 7 9 1024.3 1024.0 5.2
28/07:00am 9.3 5.3 8.1 92 0.6 SSE 19 24 10 13 1024.0 1023.6 5.2
28/06:30am 9.2 6.7 8.1 93 0.5 SSE 11 19 6 10 1023.8 1023.4 5.2
28/06:00am 8.9 5.9 7.5 91 0.7 S 13 17 7 9 1023.5 1023.1 5.2
28/05:30am 9.2 6.2 7.8 91 0.7 S 13 17 7 9 1023.4 1023.0 5.2
28/05:00am 9.2 6.8 8.7 97 0.3 SSE 11 15 6 8 1023.1 1022.7 5.2
28/04:30am 9.4 6.6 8.6 95 0.4 SSE 13 20 7 11 1023.1 1022.7 5.2
28/04:00am 9.0 5.8 8.6 97 0.2 SSE 15 19 8 10 1023.0 1022.5 5.2
28/03:30am 9.3 6.2 8.7 96 0.3 SSE 15 20 8 11 1022.8 1022.4 5.2
28/03:00am 9.3 6.4 8.2 93 0.6 SSE 13 20 7 11 1022.7 1022.3 5.2
28/02:30am 9.0 6.6 8.6 97 0.2 SE 11 17 6 9 1022.7 1022.3 5.2
28/02:00am 9.0 6.2 8.6 97 0.2 SE 13 15 7 8 1022.8 1022.4 5.2
28/01:30am 9.2 6.5 8.9 98 0.2 SE 13 19 7 10 1022.7 1022.3 5.2
28/01:00am 9.7 5.7 9.2 97 0.3 SE 20 26 11 14 1022.6 1022.2 5.2
28/12:30am 10.1 5.0 7.7 85 1.2 SSE 24 32 13 17 1022.5 1022.1 5.2
28/12:00am 10.4 7.1 8.2 86 1.1 S 15 22 8 12 1023.0 1022.5 5.2
 
Date/Time
CST
Temp
°C
App
Temp
°C
Dew
Point
°C
Rel
Hum
%
Delta-T
°C
Wind Press
QNH
hPa
Press
MSL
hPa
Rain since
9am
mm
Dir  Spd
km/h
Gust
km/h
Spd
kts
Gust
kts
27/11:30pm 10.5 7.8 8.8 89 0.9 S 13 19 7 10 1022.8 1022.4 5.2
27/11:00pm 10.6 8.2 8.5 87 1.1 S 11 19 6 10 1022.8 1022.4 5.2
27/10:30pm 10.7 8.7 8.8 88 1.0 SSE 9 13 5 7 1022.7 1022.3 5.2
27/10:00pm 10.7 8.0 8.8 88 1.0 S 13 19 7 10 1022.6 1022.2 5.2
27/09:30pm 10.5 9.3 10.2 98 0.2 WSW 7 9 4 5 1022.5 1022.1 5.2
27/09:00pm 10.5 8.5 10.2 98 0.2 SSW 11 13 6 7 1022.4 1022.0 5.2
27/08:30pm 10.5 8.1 10.0 97 0.3 ESE 13 17 7 9 1022.2 1021.8 5.2
27/08:00pm 10.9 9.3 10.1 95 0.4 WSW 9 17 5 9 1022.2 1021.8 5.2
27/07:30pm 10.9 9.0 10.4 97 0.3 WSW 11 17 6 9 1021.8 1021.3 5.2
27/07:00pm 10.9 9.8 10.6 98 0.2 SSW 7 11 4 6 1021.3 1020.9 5.2
27/06:30pm 10.8 8.5 10.5 98 0.2 WSW 13 17 7 9 1021.2 1020.8 5.2
27/06:00pm 10.9 8.6 10.6 98 0.2 SW 13 17 7 9 1020.9 1020.5 5.2
27/05:30pm 11.4 11.0 9.7 89 0.9 ENE 2 9 1 5 1020.7 1020.3 5.2
27/05:00pm 11.5 10.2 9.1 85 1.2 NE 6 7 3 4 1020.3 1019.8 5.2
27/04:30pm 11.4 9.9 9.0 85 1.2 E 7 11 4 6 1020.2 1019.7 5.2
27/04:00pm 11.7 10.3 9.4 86 1.2 E 7 11 4 6 1019.8 1019.4 5.2
27/03:30pm 11.4 9.9 9.3 87 1.1 ENE 7 11 4 6 1020.1 1019.6 5.2
27/03:00pm 11.6 9.2 8.8 83 1.4 ENE 11 13 6 7 1020.0 1019.5 5.2
27/02:30pm 11.7 10.3 9.4 86 1.2 ENE 7 13 4 7 1020.1 1019.6 5.2
27/02:00pm 11.5 9.9 10.1 91 0.7 ENE 9 11 5 6 1020.2 1019.7 5.2
27/01:30pm 10.5 8.9 10.2 98 0.2 NE 9 13 5 7 1020.4 1019.9 5.2
27/01:00pm 10.3 7.9 10.1 99 0.1 NE 13 15 7 8 1020.8 1020.4 5.2
27/12:30pm 9.6 7.8 9.3 98 0.2 WNW 9 15 5 8 1022.3 1021.9 4.0
27/12:00pm 9.5 7.3 9.2 98 0.2 E 11 13 6 7 1022.2 1021.8 3.6
27/11:30am 9.2 7.7 9.1 99 0.1 S 7 11 4 6 1022.8 1022.4 3.6
27/11:00am 8.8 5.2 8.5 98 0.2 WSW 17 20 9 11 1023.8 1023.4 1.8
27/10:30am 9.1 6.4 8.8 98 0.2 ENE 13 19 7 10 1022.2 1021.8 0.0
27/10:00am 9.0 7.0 8.7 98 0.2 ESE 9 11 5 6 1022.4 1022.0 0.0
27/09:30am 8.8 6.8 8.7 99 0.1 E 9 13 5 7 1022.2 1021.8 0.0
27/09:00am 8.5 8.1 8.4 99 0.0 CALM 0 6 0 3 1022.3 1021.9 5.4
27/08:30am 7.7 3.9 7.7 100 0.0 ENE 17 28 9 15 1021.5 1021.0 5.4
27/08:00am 7.5 5.2 7.4 99 0.0 NE 9 13 5 7 1021.1 1020.7 3.4
27/07:30am 7.0 5.0 6.9 99 0.0 E 7 9 4 5 1021.1 1020.7 3.2
27/07:00am 6.9 5.0 6.8 99 0.0 ENE 6 7 3 4 1021.2 1020.8 3.2
27/06:30am 7.0 5.1 6.9 99 0.0 E 6 7 3 4 1020.9 1020.5 3.2
27/06:00am 6.8 4.7 6.7 99 0.0 E 7 7 4 4 1020.8 1020.4 3.0
27/05:30am 6.4 4.2 6.1 98 0.1 ENE 7 9 4 5 1020.8 1020.4 3.0
27/05:00am 7.8 5.9 7.7 99 0.0 ESE 7 9 4 5 1020.7 1020.3 3.0
27/04:30am 7.4 5.4 7.3 99 0.0 ESE 7 9 4 5 1020.9 1020.5 3.0
27/04:00am 6.7 4.6 6.6 99 0.0 ESE 7 9 4 5 1020.9 1020.5 3.0
27/03:30am 7.0 3.8 6.9 99 0.0 E 13 13 7 7 1020.8 1020.4 3.0
27/03:00am 7.2 4.1 7.1 99 0.0 E 13 13 7 7 1020.9 1020.5 3.0
27/02:30am 7.1 6.0 7.0 99 0.0 NE 2 7 1 4 1021.0 1020.6 3.0
27/02:00am 7.6 4.9 7.5 99 0.0 ESE 11 15 6 8 1021.0 1020.6 3.0
27/01:30am 7.8 5.2 7.7 99 0.0 ESE 11 13 6 7 1021.2 1020.8 3.0
27/01:00am 7.5 5.6 7.4 99 0.0 ENE 7 11 4 6 1021.5 1021.0 3.0
27/12:30am 7.3 4.6 7.2 99 0.0 ENE 11 13 6 7 1021.1 1020.7 3.0
27/12:00am 7.6 4.5 7.3 98 0.1 ENE 13 15 7 8 1021.7 1021.2 3.0
 
Date/Time
CST
Temp
°C
App
Temp
°C
Dew
Point
°C
Rel
Hum
%
Delta-T
°C
Wind Press
QNH
hPa
Press
MSL
hPa
Rain since
9am
mm
Dir  Spd
km/h
Gust
km/h
Spd
kts
Gust
kts
26/11:30pm 8.2 6.0 7.9 98 0.1 E 9 11 5 6 1022.0 1021.6 3.0
26/11:00pm 8.4 6.3 8.1 98 0.1 ENE 9 13 5 7 1022.1 1021.7 3.0
26/10:30pm 8.6 6.9 8.2 97 0.2 ENE 7 9 4 5 1021.9 1021.5 3.0
26/10:00pm 9.0 7.5 8.4 96 0.3 N 6 11 3 6 1022.2 1021.8 3.0
26/09:30pm 8.9 6.1 8.5 97 0.2 ENE 13 17 7 9 1022.2 1021.8 3.0
26/09:00pm 9.4 5.9 8.6 95 0.4 NE 17 22 9 12 1021.9 1021.5 3.0
26/08:30pm 9.3 4.8 8.5 95 0.4 NNE 22 32 12 17 1021.5 1021.0 3.0
26/08:00pm 9.2 4.6 8.3 94 0.5 NE 22 30 12 16 1021.3 1020.9 3.0
26/07:30pm 9.4 6.0 9.1 98 0.2 NE 17 28 9 15 1022.1 1021.7 3.0
26/07:00pm 9.4 6.7 9.1 98 0.2 NE 13 17 7 9 1022.4 1022.0 2.8
26/06:30pm 9.7 7.5 9.4 98 0.2 NE 11 13 6 7 1022.7 1022.3 2.4

Other Formats:

Comma delimited format used in spreadsheet applications
http://www.bom.gov.au/fwo/IDD60801/IDD60801.94474.axf

JavaScript Object Notation format (JSON) in row-major order
http://www.bom.gov.au/fwo/IDD60801/IDD60801.94474.json